Terminal Aerodrome Forecast
Issued by NWS

Home | Current Version | Previous Version | Graphics & Text | Print | Product List | Glossary Off
Versions: 1 2 3 4 5 6 7 8 9 10 11 12 13 14 15 16 17 18 19 20 21

000
FTUS43 KDDC 230301 AAE
TAFHYS
TAF AMD
KHYS 230301Z 2303/2324 06016KT P6SM VCSH FEW060 SCT070
     FM231200 01009KT P6SM SKC
     FM231800 05009KT P6SM SCT080=

USA.gov is the U.S. government's official web portal to all federal, state and local government web resources and services.